sensor_id;sensor_type;location;lat;lon;timestamp;pressure;altitude;pressure_sealevel;temperature;humidity
59825;BME280;45703;50.898;6.054;2023-06-14T00:00:36;99888.69;;;19.58;49.84
59825;BME280;45703;50.898;6.054;2023-06-14T00:03:04;99898.41;;;19.59;50.10
59825;BME280;45703;50.898;6.054;2023-06-14T00:05:29;99902.81;;;19.55;50.23
59825;BME280;45703;50.898;6.054;2023-06-14T00:07:58;99897.50;;;19.45;50.55
59825;BME280;45703;50.898;6.054;2023-06-14T00:10:25;99891.63;;;19.38;50.83
59825;BME280;45703;50.898;6.054;2023-06-14T00:12:55;99893.25;;;19.39;49.01
59825;BME280;45703;50.898;6.054;2023-06-14T00:15:21;99884.66;;;19.32;51.22
59825;BME280;45703;50.898;6.054;2023-06-14T00:17:46;99892.25;;;19.30;51.34
59825;BME280;45703;50.898;6.054;2023-06-14T00:20:12;99896.63;;;19.26;51.15
59825;BME280;45703;50.898;6.054;2023-06-14T00:22:38;99896.69;;;19.21;51.68
59825;BME280;45703;50.898;6.054;2023-06-14T00:25:04;99894.03;;;19.16;51.75
59825;BME280;45703;50.898;6.054;2023-06-14T00:27:30;99886.47;;;19.08;52.07
59825;BME280;45703;50.898;6.054;2023-06-14T00:29:55;99892.44;;;19.05;52.13
59825;BME280;45703;50.898;6.054;2023-06-14T00:32:23;99886.28;;;18.99;51.56
59825;BME280;45703;50.898;6.054;2023-06-14T00:34:51;99897.44;;;18.93;52.23
59825;BME280;45703;50.898;6.054;2023-06-14T00:37:16;99895.81;;;18.92;52.26
59825;BME280;45703;50.898;6.054;2023-06-14T00:39:42;99883.22;;;18.78;52.60
59825;BME280;45703;50.898;6.054;2023-06-14T00:42:07;99891.28;;;18.83;52.76
59825;BME280;45703;50.898;6.054;2023-06-14T00:44:32;99887.53;;;18.79;53.14
59825;BME280;45703;50.898;6.054;2023-06-14T00:46:58;99900.00;;;18.75;53.42
59825;BME280;45703;50.898;6.054;2023-06-14T00:49:24;99891.13;;;18.69;52.83
59825;BME280;45703;50.898;6.054;2023-06-14T00:51:49;99891.19;;;18.64;53.22
59825;BME280;45703;50.898;6.054;2023-06-14T00:54:15;99886.66;;;18.55;53.57
59825;BME280;45703;50.898;6.054;2023-06-14T00:56:42;99896.38;;;18.56;53.49
59825;BME280;45703;50.898;6.054;2023-06-14T00:59:09;99900.44;;;18.53;54.07
59825;BME280;45703;50.898;6.054;2023-06-14T01:01:36;99896.97;;;18.48;53.70
59825;BME280;45703;50.898;6.054;2023-06-14T01:04:02;99889.19;;;18.36;53.97
59825;BME280;45703;50.898;6.054;2023-06-14T01:06:42;99901.09;;;18.35;53.99
59825;BME280;45703;50.898;6.054;2023-06-14T01:11:53;99896.56;;;18.16;54.74
59825;BME280;45703;50.898;6.054;2023-06-14T01:14:23;99907.16;;;18.12;54.46
59825;BME280;45703;50.898;6.054;2023-06-14T01:16:51;99909.31;;;18.05;55.21
59825;BME280;45703;50.898;6.054;2023-06-14T01:19:18;99911.50;;;17.98;55.70
59825;BME280;45703;50.898;6.054;2023-06-14T01:21:48;99914.78;;;17.90;56.56
59825;BME280;45703;50.898;6.054;2023-06-14T01:24:16;99899.72;;;17.79;56.36
59825;BME280;45703;50.898;6.054;2023-06-14T01:26:41;99898.91;;;17.74;55.96
59825;BME280;45703;50.898;6.054;2023-06-14T01:29:11;99902.44;;;17.74;56.01
59825;BME280;45703;50.898;6.054;2023-06-14T01:31:38;99908.41;;;17.71;55.61
59825;BME280;45703;50.898;6.054;2023-06-14T01:34:07;99903.56;;;17.68;55.28
59825;BME280;45703;50.898;6.054;2023-06-14T01:36:34;99916.50;;;17.66;55.20
59825;BME280;45703;50.898;6.054;2023-06-14T01:39:01;99913.28;;;17.59;55.88
59825;BME280;45703;50.898;6.054;2023-06-14T01:41:27;99913.84;;;17.51;55.98
59825;BME280;45703;50.898;6.054;2023-06-14T01:43:54;99905.50;;;17.43;56.16
59825;BME280;45703;50.898;6.054;2023-06-14T01:46:20;99902.00;;;17.38;56.23
59825;BME280;45703;50.898;6.054;2023-06-14T01:48:46;99917.66;;;17.36;57.04
59825;BME280;45703;50.898;6.054;2023-06-14T01:51:12;99924.91;;;17.30;57.67
59825;BME280;45703;50.898;6.054;2023-06-14T01:53:38;99918.97;;;17.23;57.19
59825;BME280;45703;50.898;6.054;2023-06-14T01:56:03;99918.75;;;17.15;57.31
59825;BME280;45703;50.898;6.054;2023-06-14T01:58:29;99918.75;;;17.10;57.70
59825;BME280;45703;50.898;6.054;2023-06-14T02:00:54;99907.94;;;17.05;57.76
59825;BME280;45703;50.898;6.054;2023-06-14T02:03:23;99913.06;;;17.06;57.86
59825;BME280;45703;50.898;6.054;2023-06-14T02:05:49;99909.00;;;17.04;57.56
59825;BME280;45703;50.898;6.054;2023-06-14T02:08:15;99911.72;;;17.09;57.38
59825;BME280;45703;50.898;6.054;2023-06-14T02:10:40;99910.66;;;17.10;57.35
59825;BME280;45703;50.898;6.054;2023-06-14T02:13:05;99910.91;;;17.08;58.00
59825;BME280;45703;50.898;6.054;2023-06-14T02:15:31;99905.25;;;17.10;57.33
59825;BME280;45703;50.898;6.054;2023-06-14T02:18:00;99922.25;;;17.10;58.13
59825;BME280;45703;50.898;6.054;2023-06-14T02:20:26;99914.94;;;17.01;58.25
59825;BME280;45703;50.898;6.054;2023-06-14T02:22:51;99922.50;;;16.99;58.31
59825;BME280;45703;50.898;6.054;2023-06-14T02:25:17;99923.06;;;16.96;58.12
59825;BME280;45703;50.898;6.054;2023-06-14T02:27:42;99920.34;;;16.96;58.05
59825;BME280;45703;50.898;6.054;2023-06-14T02:30:08;99920.34;;;16.96;58.17
59825;BME280;45703;50.898;6.054;2023-06-14T02:32:33;99924.41;;;16.93;58.02
59825;BME280;45703;50.898;6.054;2023-06-14T02:35:00;99923.34;;;16.89;57.67
59825;BME280;45703;50.898;6.054;2023-06-14T02:37:26;99928.97;;;16.88;58.16
59825;BME280;45703;50.898;6.054;2023-06-14T02:39:51;99917.13;;;16.79;58.48
59825;BME280;45703;50.898;6.054;2023-06-14T02:42:17;99926.00;;;16.79;58.28
59825;BME280;45703;50.898;6.054;2023-06-14T02:44:42;99923.84;;;16.76;58.28
59825;BME280;45703;50.898;6.054;2023-06-14T02:47:08;99919.81;;;16.74;57.15
59825;BME280;45703;50.898;6.054;2023-06-14T02:49:34;99919.81;;;16.74;57.31
59825;BME280;45703;50.898;6.054;2023-06-14T02:51:59;99919.28;;;16.67;58.03
59825;BME280;45703;50.898;6.054;2023-06-14T02:54:25;99917.13;;;16.64;58.10
59825;BME280;45703;50.898;6.054;2023-06-14T02:56:50;99925.22;;;16.69;58.51
59825;BME280;45703;50.898;6.054;2023-06-14T02:59:16;99926.81;;;16.65;58.52
59825;BME280;45703;50.898;6.054;2023-06-14T03:01:42;99943.00;;;16.70;57.88
59825;BME280;45703;50.898;6.054;2023-06-14T03:04:08;99927.91;;;16.64;58.43
59825;BME280;45703;50.898;6.054;2023-06-14T03:06:33;99943.00;;;16.65;58.20
59825;BME280;45703;50.898;6.054;2023-06-14T03:09:00;99943.00;;;16.65;58.30
59825;BME280;45703;50.898;6.054;2023-06-14T03:11:30;99941.63;;;16.62;58.51
59825;BME280;45703;50.898;6.054;2023-06-14T03:13:55;99950.53;;;16.63;58.40
59825;BME280;45703;50.898;6.054;2023-06-14T03:16:21;99952.16;;;16.64;58.34
59825;BME280;45703;50.898;6.054;2023-06-14T03:18:50;99948.91;;;16.62;58.32
59825;BME280;45703;50.898;6.054;2023-06-14T03:21:15;99944.06;;;16.59;58.56
59825;BME280;45703;50.898;6.054;2023-06-14T03:23:42;99945.41;;;16.56;57.96
59825;BME280;45703;50.898;6.054;2023-06-14T03:26:07;99934.31;;;16.53;58.77
59825;BME280;45703;50.898;6.054;2023-06-14T03:28:33;99945.66;;;16.55;58.54
59825;BME280;45703;50.898;6.054;2023-06-14T03:30:58;99950.50;;;16.53;59.35
59825;BME280;45703;50.898;6.054;2023-06-14T03:33:24;99939.69;;;16.43;59.22
59825;BME280;45703;50.898;6.054;2023-06-14T03:35:50;99955.88;;;16.43;59.91
59825;BME280;45703;50.898;6.054;2023-06-14T03:38:16;99954.53;;;16.40;59.84
59825;BME280;45703;50.898;6.054;2023-06-14T03:40:41;99943.41;;;16.32;59.62
59825;BME280;45703;50.898;6.054;2023-06-14T03:43:07;99952.28;;;16.27;59.50
59825;BME280;45703;50.898;6.054;2023-06-14T03:45:32;99953.38;;;16.31;59.51
59825;BME280;45703;50.898;6.054;2023-06-14T03:47:57;99954.72;;;16.29;59.94
59825;BME280;45703;50.898;6.054;2023-06-14T03:50:23;99959.28;;;16.28;60.15
59825;BME280;45703;50.898;6.054;2023-06-14T03:52:49;99961.19;;;16.23;59.51
59825;BME280;45703;50.898;6.054;2023-06-14T03:55:15;99957.63;;;16.17;60.17
59825;BME280;45703;50.898;6.054;2023-06-14T03:57:41;99961.69;;;16.20;59.79
59825;BME280;45703;50.898;6.054;2023-06-14T04:00:08;99972.75;;;16.23;60.34
59825;BME280;45703;50.898;6.054;2023-06-14T04:02:34;99965.72;;;16.22;60.47
59825;BME280;45703;50.898;6.054;2023-06-14T04:05:02;99967.09;;;16.20;60.51
59825;BME280;45703;50.898;6.054;2023-06-14T04:07:27;99971.41;;;16.21;60.62
59825;BME280;45703;50.898;6.054;2023-06-14T04:09:53;99958.69;;;16.11;61.20
59825;BME280;45703;50.898;6.054;2023-06-14T04:12:19;99976.50;;;16.17;61.41
59825;BME280;45703;50.898;6.054;2023-06-14T04:14:44;99976.78;;;16.16;61.57
59825;BME280;45703;50.898;6.054;2023-06-14T04:17:09;99974.59;;;16.13;61.87
59825;BME280;45703;50.898;6.054;2023-06-14T04:19:35;99977.31;;;16.13;61.92
59825;BME280;45703;50.898;6.054;2023-06-14T04:22:01;99967.59;;;16.12;61.17
59825;BME280;45703;50.898;6.054;2023-06-14T04:24:27;99976.47;;;16.12;62.05
59825;BME280;45703;50.898;6.054;2023-06-14T04:26:59;99970.25;;;16.07;62.53
59825;BME280;45703;50.898;6.054;2023-06-14T04:29:27;99985.38;;;16.08;62.69
59825;BME280;45703;50.898;6.054;2023-06-14T04:31:55;99979.41;;;16.06;62.61
59825;BME280;45703;50.898;6.054;2023-06-14T04:34:27;99979.13;;;16.02;62.81
59825;BME280;45703;50.898;6.054;2023-06-14T04:36:58;99983.72;;;16.07;62.98
59825;BME280;45703;50.898;6.054;2023-06-14T04:39:25;99983.22;;;16.10;62.95
59825;BME280;45703;50.898;6.054;2023-06-14T04:41:51;99985.09;;;16.14;63.00
59825;BME280;45703;50.898;6.054;2023-06-14T04:44:23;99992.41;;;16.19;63.38
59825;BME280;45703;50.898;6.054;2023-06-14T04:46:49;99990.78;;;16.18;64.29
59825;BME280;45703;50.898;6.054;2023-06-14T04:49:15;99998.06;;;16.22;62.18
59825;BME280;45703;50.898;6.054;2023-06-14T04:51:42;99995.91;;;16.24;63.50
59825;BME280;45703;50.898;6.054;2023-06-14T04:54:11;99994.31;;;16.28;62.49
59825;BME280;45703;50.898;6.054;2023-06-14T04:56:42;99989.78;;;16.34;62.89
59825;BME280;45703;50.898;6.054;2023-06-14T04:59:08;99994.97;;;16.45;62.79
59825;BME280;45703;50.898;6.054;2023-06-14T05:01:34;99997.94;;;16.54;61.92
59825;BME280;45703;50.898;6.054;2023-06-14T05:04:00;99999.84;;;16.63;62.82
59825;BME280;45703;50.898;6.054;2023-06-14T05:06:26;100004.72;;;16.76;62.04
59825;BME280;45703;50.898;6.054;2023-06-14T05:08:53;100007.72;;;16.85;61.77
59825;BME280;45703;50.898;6.054;2023-06-14T05:11:18;100005.03;;;16.95;61.18
59825;BME280;45703;50.898;6.054;2023-06-14T05:13:44;100003.69;;;17.07;61.66
59825;BME280;45703;50.898;6.054;2023-06-14T05:16:10;100000.75;;;17.14;61.70
59825;BME280;45703;50.898;6.054;2023-06-14T05:18:37;100014.25;;;17.29;61.13
59825;BME280;45703;50.898;6.054;2023-06-14T05:21:13;100009.16;;;17.37;58.36
59825;BME280;45703;50.898;6.054;2023-06-14T05:23:43;100000.75;;;17.43;58.06
59825;BME280;45703;50.898;6.054;2023-06-14T05:26:10;99992.66;;;17.48;57.72
59825;BME280;45703;50.898;6.054;2023-06-14T05:28:35;100008.03;;;17.63;57.40
59825;BME280;45703;50.898;6.054;2023-06-14T05:31:01;100002.06;;;17.71;58.20
59825;BME280;45703;50.898;6.054;2023-06-14T05:33:26;100006.91;;;17.84;59.26
59825;BME280;45703;50.898;6.054;2023-06-14T05:35:52;100004.47;;;17.92;58.61
59825;BME280;45703;50.898;6.054;2023-06-14T05:38:17;100004.44;;;18.02;58.46
59825;BME280;45703;50.898;6.054;2023-06-14T05:40:42;100016.84;;;18.13;58.43
59825;BME280;45703;50.898;6.054;2023-06-14T05:43:08;100018.97;;;18.21;56.80
59825;BME280;45703;50.898;6.054;2023-06-14T05:45:33;100022.44;;;18.32;57.26
59825;BME280;45703;50.898;6.054;2023-06-14T05:47:58;100029.16;;;18.44;57.25
59825;BME280;45703;50.898;6.054;2023-06-14T05:50:24;100027.50;;;18.53;57.20
59825;BME280;45703;50.898;6.054;2023-06-14T05:52:49;100031.78;;;18.64;56.72
59825;BME280;45703;50.898;6.054;2023-06-14T05:55:16;100032.81;;;18.73;56.40
59825;BME280;45703;50.898;6.054;2023-06-14T05:57:42;100027.91;;;18.80;55.79
59825;BME280;45703;50.898;6.054;2023-06-14T06:00:08;100037.31;;;18.92;55.53
59825;BME280;45703;50.898;6.054;2023-06-14T06:02:42;100040.75;;;19.03;55.53
59825;BME280;45703;50.898;6.054;2023-06-14T06:05:11;100032.59;;;19.08;55.16
59825;BME280;45703;50.898;6.054;2023-06-14T06:07:38;100037.47;;;19.16;54.43
59825;BME280;45703;50.898;6.054;2023-06-14T06:10:05;100044.16;;;19.23;54.18
59825;BME280;45703;50.898;6.054;2023-06-14T06:12:31;100051.09;;;19.34;53.66
59825;BME280;45703;50.898;6.054;2023-06-14T06:14:58;100056.72;;;19.43;52.70
59825;BME280;45703;50.898;6.054;2023-06-14T06:17:24;100055.31;;;19.50;52.97
59825;BME280;45703;50.898;6.054;2023-06-14T06:19:50;100058.78;;;19.56;53.11
59825;BME280;45703;50.898;6.054;2023-06-14T06:22:15;100060.59;;;19.65;52.23
59825;BME280;45703;50.898;6.054;2023-06-14T06:24:40;100065.41;;;19.73;51.34
59825;BME280;45703;50.898;6.054;2023-06-14T06:27:06;100062.94;;;19.77;51.33
59825;BME280;45703;50.898;6.054;2023-06-14T06:29:33;100067.44;;;19.86;51.75
59825;BME280;45703;50.898;6.054;2023-06-14T06:31:58;100064.16;;;19.89;51.56
59825;BME280;45703;50.898;6.054;2023-06-14T06:34:24;100072.75;;;20.01;51.77
59825;BME280;45703;50.898;6.054;2023-06-14T06:36:49;100068.59;;;20.09;51.67
59825;BME280;45703;50.898;6.054;2023-06-14T06:39:15;100058.00;;;20.12;50.88
59825;BME280;45703;50.898;6.054;2023-06-14T06:41:40;100070.13;;;20.20;50.86
59825;BME280;45703;50.898;6.054;2023-06-14T06:44:06;100080.84;;;20.30;50.53
59825;BME280;45703;50.898;6.054;2023-06-14T06:46:32;100061.13;;;20.24;50.91
59825;BME280;45703;50.898;6.054;2023-06-14T06:48:58;100073.25;;;20.32;50.86
59825;BME280;45703;50.898;6.054;2023-06-14T06:51:24;100073.63;;;20.43;49.89
59825;BME280;45703;50.898;6.054;2023-06-14T06:53:53;100079.00;;;20.48;49.92
59825;BME280;45703;50.898;6.054;2023-06-14T06:56:19;100074.63;;;20.52;49.74
59825;BME280;45703;50.898;6.054;2023-06-14T06:58:45;100092.16;;;20.60;49.33
59825;BME280;45703;50.898;6.054;2023-06-14T07:01:10;100083.19;;;20.59;50.06
59825;BME280;45703;50.898;6.054;2023-06-14T07:03:36;100090.72;;;20.67;48.95
59825;BME280;45703;50.898;6.054;2023-06-14T07:06:02;100092.03;;;20.70;49.17
59825;BME280;45703;50.898;6.054;2023-06-14T07:08:27;100095.50;;;20.75;48.88
59825;BME280;45703;50.898;6.054;2023-06-14T07:10:53;100094.34;;;20.81;48.82
59825;BME280;45703;50.898;6.054;2023-06-14T07:13:19;100100.81;;;20.85;49.02
59825;BME280;45703;50.898;6.054;2023-06-14T07:15:45;100106.69;;;20.92;49.16
59825;BME280;45703;50.898;6.054;2023-06-14T07:18:10;100101.50;;;20.96;48.77
59825;BME280;45703;50.898;6.054;2023-06-14T07:20:36;100117.66;;;21.06;48.43
59825;BME280;45703;50.898;6.054;2023-06-14T07:23:03;100103.19;;;21.10;48.22
59825;BME280;45703;50.898;6.054;2023-06-14T07:25:30;100112.06;;;21.16;48.21
59825;BME280;45703;50.898;6.054;2023-06-14T07:27:56;100097.41;;;21.17;48.42
59825;BME280;45703;50.898;6.054;2023-06-14T07:30:21;100108.41;;;21.25;48.18
59825;BME280;45703;50.898;6.054;2023-06-14T07:32:53;100111.56;;;21.32;48.04
59825;BME280;45703;50.898;6.054;2023-06-14T07:35:19;100102.31;;;21.33;47.48
59825;BME280;45703;50.898;6.054;2023-06-14T07:37:45;100105.97;;;21.42;47.75
59825;BME280;45703;50.898;6.054;2023-06-14T07:40:12;100103.78;;;21.44;46.90
59825;BME280;45703;50.898;6.054;2023-06-14T07:42:38;100107.81;;;21.47;47.01
59825;BME280;45703;50.898;6.054;2023-06-14T07:45:04;100109.88;;;21.55;47.52
59825;BME280;45703;50.898;6.054;2023-06-14T07:47:30;100123.31;;;21.65;47.29
59825;BME280;45703;50.898;6.054;2023-06-14T07:49:55;100107.75;;;21.70;47.30
59825;BME280;45703;50.898;6.054;2023-06-14T07:52:21;100102.81;;;21.72;47.29
59825;BME280;45703;50.898;6.054;2023-06-14T07:54:47;100122.78;;;21.81;46.15
59825;BME280;45703;50.898;6.054;2023-06-14T07:57:12;100108.59;;;21.84;45.92
59825;BME280;45703;50.898;6.054;2023-06-14T07:59:38;100102.56;;;21.87;46.58
59825;BME280;45703;50.898;6.054;2023-06-14T08:02:03;100104.09;;;21.93;46.21
59825;BME280;45703;50.898;6.054;2023-06-14T08:04:29;100107.72;;;22.02;46.10
59825;BME280;45703;50.898;6.054;2023-06-14T08:06:54;100108.84;;;22.01;46.08
59825;BME280;45703;50.898;6.054;2023-06-14T08:09:19;100118.41;;;22.12;45.96
59825;BME280;45703;50.898;6.054;2023-06-14T08:11:45;100116.72;;;22.16;45.83
59825;BME280;45703;50.898;6.054;2023-06-14T08:14:10;100119.66;;;22.19;45.40
59825;BME280;45703;50.898;6.054;2023-06-14T08:16:36;100117.66;;;22.25;44.52
59825;BME280;45703;50.898;6.054;2023-06-14T08:19:02;100131.84;;;22.35;44.60
59825;BME280;45703;50.898;6.054;2023-06-14T08:21:28;100130.69;;;22.41;44.48
59825;BME280;45703;50.898;6.054;2023-06-14T08:23:54;100134.63;;;22.49;44.47
59825;BME280;45703;50.898;6.054;2023-06-14T08:26:20;100131.53;;;22.55;44.30
59825;BME280;45703;50.898;6.054;2023-06-14T08:28:46;100142.81;;;22.62;44.36
59825;BME280;45703;50.898;6.054;2023-06-14T08:31:11;100123.44;;;22.64;43.22
59825;BME280;45703;50.898;6.054;2023-06-14T08:33:37;100134.75;;;22.71;43.11
59825;BME280;45703;50.898;6.054;2023-06-14T08:36:04;100118.41;;;22.71;43.82
59825;BME280;45703;50.898;6.054;2023-06-14T08:38:30;100133.72;;;22.80;43.12
59825;BME280;45703;50.898;6.054;2023-06-14T08:40:57;100129.00;;;22.86;42.52
59825;BME280;45703;50.898;6.054;2023-06-14T08:43:23;100130.28;;;22.88;42.43
59825;BME280;45703;50.898;6.054;2023-06-14T08:45:53;100131.78;;;22.94;43.77
59825;BME280;45703;50.898;6.054;2023-06-14T08:48:26;100135.22;;;23.00;43.66
59825;BME280;45703;50.898;6.054;2023-06-14T08:50:56;100125.94;;;23.01;43.17
59825;BME280;45703;50.898;6.054;2023-06-14T08:53:28;100124.44;;;23.08;42.78
59825;BME280;45703;50.898;6.054;2023-06-14T08:55:58;100138.13;;;23.17;42.61
59825;BME280;45703;50.898;6.054;2023-06-14T08:58:25;100136.41;;;23.21;42.29
59825;BME280;45703;50.898;6.054;2023-06-14T09:00:51;100119.28;;;23.20;41.62
59825;BME280;45703;50.898;6.054;2023-06-14T09:03:18;100131.25;;;23.33;41.37
59825;BME280;45703;50.898;6.054;2023-06-14T09:05:45;100130.31;;;23.37;42.04
59825;BME280;45703;50.898;6.054;2023-06-14T09:08:11;100112.06;;;23.38;41.61
59825;BME280;45703;50.898;6.054;2023-06-14T09:10:36;100132.22;;;23.50;42.02
59825;BME280;45703;50.898;6.054;2023-06-14T09:13:03;100126.94;;;23.53;42.66
59825;BME280;45703;50.898;6.054;2023-06-14T09:15:32;100138.22;;;23.60;41.77
59825;BME280;45703;50.898;6.054;2023-06-14T09:18:01;100132.75;;;23.60;41.80
59825;BME280;45703;50.898;6.054;2023-06-14T09:20:26;100134.38;;;23.61;41.04
59825;BME280;45703;50.898;6.054;2023-06-14T09:22:51;100131.66;;;23.61;40.77
59825;BME280;45703;50.898;6.054;2023-06-14T09:25:17;100148.50;;;23.63;40.54
59825;BME280;45703;50.898;6.054;2023-06-14T09:27:43;100141.94;;;23.64;40.83
59825;BME280;45703;50.898;6.054;2023-06-14T09:30:10;100135.81;;;23.59;40.43
59825;BME280;45703;50.898;6.054;2023-06-14T09:32:37;100138.84;;;23.57;40.41
59825;BME280;45703;50.898;6.054;2023-06-14T09:35:05;100137.22;;;23.56;40.55
59825;BME280;45703;50.898;6.054;2023-06-14T09:37:31;100138.22;;;23.60;40.99
59825;BME280;45703;50.898;6.054;2023-06-14T09:39:58;100133.59;;;23.61;40.37
59825;BME280;45703;50.898;6.054;2023-06-14T09:42:23;100142.44;;;23.66;40.41
59825;BME280;45703;50.898;6.054;2023-06-14T09:44:52;100134.25;;;23.66;39.81
59825;BME280;45703;50.898;6.054;2023-06-14T09:47:18;100131.53;;;23.66;39.60
59825;BME280;45703;50.898;6.054;2023-06-14T09:49:44;100136.06;;;23.71;38.88
59825;BME280;45703;50.898;6.054;2023-06-14T09:52:13;100129.19;;;23.73;39.26
59825;BME280;45703;50.898;6.054;2023-06-14T09:54:41;100138.38;;;23.77;39.16
59825;BME280;45703;50.898;6.054;2023-06-14T09:57:11;100134.81;;;23.77;39.84
59825;BME280;45703;50.898;6.054;2023-06-14T09:59:41;100127.97;;;23.79;39.52
59825;BME280;45703;50.898;6.054;2023-06-14T10:02:11;100125.44;;;23.83;40.57
59825;BME280;45703;50.898;6.054;2023-06-14T10:04:55;100134.47;;;23.92;39.76
59825;BME280;45703;50.898;6.054;2023-06-14T10:07:23;100125.50;;;23.91;38.83
59825;BME280;45703;50.898;6.054;2023-06-14T10:09:53;100122.16;;;23.94;39.59
59825;BME280;45703;50.898;6.054;2023-06-14T10:12:18;100114.47;;;23.96;38.98
59825;BME280;45703;50.898;6.054;2023-06-14T10:14:51;100119.28;;;23.99;38.78
59825;BME280;45703;50.898;6.054;2023-06-14T10:20:26;100122.88;;;24.08;38.42
59825;BME280;45703;50.898;6.054;2023-06-14T10:25:31;100120.50;;;24.15;37.37
59825;BME280;45703;50.898;6.054;2023-06-14T10:28:14;100120.34;;;24.20;37.98
59825;BME280;45703;50.898;6.054;2023-06-14T10:33:29;100108.09;;;24.31;37.29
59825;BME280;45703;50.898;6.054;2023-06-14T10:41:23;100129.16;;;24.48;34.61
59825;BME280;45703;50.898;6.054;2023-06-14T10:43:48;100117.13;;;24.49;34.81
59825;BME280;45703;50.898;6.054;2023-06-14T10:46:18;100127.63;;;24.55;35.72
59825;BME280;45703;50.898;6.054;2023-06-14T10:48:44;100125.88;;;24.59;35.54
59825;BME280;45703;50.898;6.054;2023-06-14T10:51:20;100126.38;;;24.61;34.79
59825;BME280;45703;50.898;6.054;2023-06-14T10:53:47;100120.91;;;24.61;34.99
59825;BME280;45703;50.898;6.054;2023-06-14T10:56:48;100118.66;;;24.63;34.50
59825;BME280;45703;50.898;6.054;2023-06-14T10:59:14;100110.97;;;24.65;34.87
59825;BME280;45703;50.898;6.054;2023-06-14T11:04:51;100106.31;;;24.74;35.97
59825;BME280;45703;50.898;6.054;2023-06-14T11:12:48;100120.69;;;24.88;34.68
59825;BME280;45703;50.898;6.054;2023-06-14T11:15:14;100125.00;;;24.81;33.22
59825;BME280;45703;50.898;6.054;2023-06-14T11:17:50;100123.38;;;24.80;33.97
59825;BME280;45703;50.898;6.054;2023-06-14T11:20:16;100114.88;;;24.81;35.17
59825;BME280;45703;50.898;6.054;2023-06-14T11:22:42;100105.56;;;24.82;33.95
59825;BME280;45703;50.898;6.054;2023-06-14T11:25:11;100116.50;;;24.91;35.53
59825;BME280;45703;50.898;6.054;2023-06-14T11:27:37;100118.13;;;25.00;35.56
59825;BME280;45703;50.898;6.054;2023-06-14T11:30:02;100107.03;;;24.97;34.44
59825;BME280;45703;50.898;6.054;2023-06-14T11:32:28;100108.66;;;25.06;35.39
59825;BME280;45703;50.898;6.054;2023-06-14T11:34:56;100113.63;;;25.04;34.59
59825;BME280;45703;50.898;6.054;2023-06-14T11:37:23;100120.41;;;25.06;35.22
59825;BME280;45703;50.898;6.054;2023-06-14T11:39:51;100113.50;;;25.09;34.77
59825;BME280;45703;50.898;6.054;2023-06-14T11:42:16;100116.41;;;25.12;35.50
59825;BME280;45703;50.898;6.054;2023-06-14T11:44:45;100118.66;;;25.19;35.74
59825;BME280;45703;50.898;6.054;2023-06-14T11:47:11;100107.44;;;25.20;35.41
59825;BME280;45703;50.898;6.054;2023-06-14T11:49:36;100110.31;;;25.24;34.99
59825;BME280;45703;50.898;6.054;2023-06-14T11:52:02;100116.28;;;25.26;33.74
59825;BME280;45703;50.898;6.054;2023-06-14T11:54:27;100104.81;;;25.15;34.36
59825;BME280;45703;50.898;6.054;2023-06-14T11:56:53;100108.34;;;25.16;34.91
59825;BME280;45703;50.898;6.054;2023-06-14T11:59:20;100118.50;;;25.24;35.81
59825;BME280;45703;50.898;6.054;2023-06-14T12:01:47;100116.28;;;25.26;35.92
59825;BME280;45703;50.898;6.054;2023-06-14T12:04:12;100113.56;;;25.26;35.35
59825;BME280;45703;50.898;6.054;2023-06-14T12:06:38;100114.03;;;25.28;35.51
59825;BME280;45703;50.898;6.054;2023-06-14T12:09:07;100122.53;;;25.26;35.87
59825;BME280;45703;50.898;6.054;2023-06-14T12:11:38;100122.72;;;25.30;35.73
59825;BME280;45703;50.898;6.054;2023-06-14T12:14:08;100111.47;;;25.31;36.02
59825;BME280;45703;50.898;6.054;2023-06-14T12:16:34;100122.22;;;25.36;36.44
59825;BME280;45703;50.898;6.054;2023-06-14T12:19:09;100109.22;;;25.42;36.30
59825;BME280;45703;50.898;6.054;2023-06-14T12:21:37;100109.53;;;25.49;36.11
59825;BME280;45703;50.898;6.054;2023-06-14T12:24:04;100118.53;;;25.58;35.89
59825;BME280;45703;50.898;6.054;2023-06-14T12:26:31;100111.13;;;25.67;35.20
59825;BME280;45703;50.898;6.054;2023-06-14T12:28:57;100123.84;;;25.71;34.38
59825;BME280;45703;50.898;6.054;2023-06-14T12:31:23;100126.41;;;25.68;34.37
59825;BME280;45703;50.898;6.054;2023-06-14T12:33:49;100127.53;;;25.67;34.07
59825;BME280;45703;50.898;6.054;2023-06-14T12:36:15;100114.34;;;25.52;33.52
59825;BME280;45703;50.898;6.054;2023-06-14T12:38:42;100110.66;;;25.48;34.13
59825;BME280;45703;50.898;6.054;2023-06-14T12:41:07;100117.09;;;25.52;34.12
59825;BME280;45703;50.898;6.054;2023-06-14T12:43:33;100126.25;;;25.56;34.35
59825;BME280;45703;50.898;6.054;2023-06-14T12:46:00;100113.72;;;25.55;34.04
59825;BME280;45703;50.898;6.054;2023-06-14T12:48:25;100120.78;;;25.56;34.09
59825;BME280;45703;50.898;6.054;2023-06-14T12:50:52;100108.25;;;25.63;33.78
59825;BME280;45703;50.898;6.054;2023-06-14T12:53:17;100125.94;;;25.74;34.28
59825;BME280;45703;50.898;6.054;2023-06-14T12:55:43;100123.38;;;25.78;32.58
59825;BME280;45703;50.898;6.054;2023-06-14T12:58:08;100112.56;;;25.81;33.29
59825;BME280;45703;50.898;6.054;2023-06-14T13:00:35;100115.63;;;25.80;33.24
59825;BME280;45703;50.898;6.054;2023-06-14T13:03:00;100113.91;;;25.84;33.17
59825;BME280;45703;50.898;6.054;2023-06-14T13:05:25;100116.44;;;25.80;32.23
59825;BME280;45703;50.898;6.054;2023-06-14T13:07:51;100119.00;;;25.77;32.61
59825;BME280;45703;50.898;6.054;2023-06-14T13:10:17;100118.19;;;25.76;32.32
59825;BME280;45703;50.898;6.054;2023-06-14T13:12:42;100119.97;;;25.81;33.28
59825;BME280;45703;50.898;6.054;2023-06-14T13:15:08;100115.63;;;25.80;32.77
59825;BME280;45703;50.898;6.054;2023-06-14T13:17:35;100114.38;;;25.86;32.58